Terminal Aerodrome Forecast
Issued by NWS

Home | Current Version | Previous Version | Text Only | Print | Product List | Glossary On
Versions: 1 2 3 4 5 6 7 8 9 10 11 12 13 14 15 16 17
000
FTUS42 KFFC 290520
TAFFTY
TAF
KFTY 290520Z 2906/3006 00000KT P6SM SCT015 SCT080 BKN250
     FM290900 00000KT P6SM SCT009 OVC015
     FM291400 12005KT P6SM VCSH BKN015 OVC150 PROB30 2915/2918 -SHRA
     FM291800 13005KT P6SM -SHRA SCT025 BKN045 OVC150
     FM300100 VRB03KT P6SM VCSH SCT050 OVC090=

USA.gov is the U.S. government's official web portal to all federal, state and local government web resources and services.